Terminal Aerodrome Forecast
Issued by NWS Amarillo, TX

Home | Current Version | Previous Version | Text Only | Print | Product List | Glossary On
Versions: 1 2 3 4 5 6 7 8 9 10 11 12 13 14 15
000
FTUS44 KAMA 150800 AAA
TAFDHT
TAF AMD
KDHT 150801Z 1508/1606 22017KT P6SM SCT015 OVC100
      TEMPO 1508/1512 BKN015
     FM151200 23010KT P6SM OVC013
     FM151600 03015G25KT P6SM SCT013 OVC040
     FM160100 04010KT P6SM OVC010=

USA.gov is the U.S. government's official web portal to all federal, state and local government web resources and services.